createdAt,value
2022-08-22T00:01:38.830Z,92469.47
2022-08-22T00:06:54.773Z,92473.69
2022-08-22T00:12:29.607Z,92483.09
2022-08-22T00:17:43.551Z,92478.28
2022-08-22T00:23:15.799Z,92472.75
2022-08-22T00:28:34.805Z,92472.88
2022-08-22T00:34:00.522Z,92473.50
2022-08-22T00:39:19.058Z,92475.94
2022-08-22T00:45:05.734Z,92454.28
2022-08-22T00:50:38.651Z,92464.28
2022-08-22T00:56:12.875Z,92458.97
2022-08-22T01:01:20.047Z,92454.81
2022-08-22T01:06:49.971Z,92450.75
2022-08-22T01:12:12.010Z,92442.69
2022-08-22T01:17:22.936Z,92450.34
2022-08-22T01:22:43.739Z,92434.34
2022-08-22T01:27:55.581Z,92437.19
2022-08-22T01:33:33.918Z,92434.44
2022-08-22T01:38:58.852Z,92429.09
2022-08-22T01:44:28.058Z,92416.63
2022-08-22T01:49:42.482Z,92394.69
2022-08-22T01:55:03.307Z,92414.03
2022-08-22T02:00:17.294Z,92416.06
2022-08-22T02:05:31.804Z,92423.59
2022-08-22T02:11:09.310Z,92422.44
2022-08-22T02:16:24.107Z,92410.03
2022-08-22T02:21:45.032Z,92413.06
2022-08-22T02:27:12.428Z,92391.28
2022-08-22T02:32:40.537Z,92397.63
2022-08-22T02:38:25.140Z,92408.28
2022-08-22T02:43:39.601Z,92398.38
2022-08-22T02:48:48.604Z,92393.75
2022-08-22T02:53:57.193Z,92392.44
2022-08-22T02:59:30.231Z,92379.50
2022-08-22T03:04:32.466Z,92379.44
2022-08-22T03:09:42.611Z,92376.06
2022-08-22T03:15:06.982Z,92373.19
2022-08-22T03:20:36.070Z,92357.09
2022-08-22T03:25:49.922Z,92369.63
2022-08-22T03:31:07.992Z,92354.25
2022-08-22T03:36:15.801Z,92357.75
2022-08-22T03:41:32.993Z,92354.03
2022-08-22T03:47:07.166Z,92351.75
2022-08-22T03:53:18.507Z,92358.84
2022-08-22T03:58:30.438Z,92355.56
2022-08-22T04:03:54.204Z,92365.97
2022-08-22T04:09:43.066Z,92367.69
2022-08-22T04:15:07.578Z,92358.41
2022-08-22T04:20:26.686Z,92364.31
2022-08-22T04:25:38.351Z,92353.66
2022-08-22T04:31:19.058Z,92366.78
2022-08-22T04:36:29.306Z,92361.53
2022-08-22T04:41:31.406Z,92373.66
2022-08-22T04:46:45.794Z,92384.66
2022-08-22T04:51:59.372Z,92367.53
2022-08-22T04:57:07.125Z,92389.78
2022-08-22T05:02:12.186Z,92394.28
2022-08-22T05:07:21.426Z,92404.72
2022-08-22T05:12:32.890Z,92403.47
2022-08-22T05:17:38.886Z,92386.78
2022-08-22T05:22:47.061Z,92415.34
2022-08-22T05:27:56.390Z,92423.91
2022-08-22T05:33:33.872Z,92434.59
2022-08-22T05:38:47.474Z,92429.41
2022-08-22T05:43:51.405Z,92440.78
2022-08-22T05:48:58.962Z,92413.88
2022-08-22T05:54:11.942Z,92420.56
2022-08-22T05:59:38.473Z,92428.75
2022-08-22T06:04:52.529Z,92428.94
2022-08-22T06:10:30.106Z,92414.44
2022-08-22T06:15:53.433Z,92428.25
2022-08-22T06:21:00.386Z,92423.91
2022-08-22T06:26:05.564Z,92431.97
2022-08-22T06:31:29.171Z,92431.09
2022-08-22T06:36:35.298Z,92428.25
2022-08-22T06:41:48.129Z,92434.38
2022-08-22T06:46:55.601Z,92436.84
2022-08-22T06:52:02.478Z,92426.72
2022-08-22T06:57:06.833Z,92438.19
2022-08-22T07:02:21.852Z,92439.88
2022-08-22T07:07:27.044Z,92443.00
2022-08-22T07:12:37.925Z,92434.09
2022-08-22T07:17:54.482Z,92445.19
2022-08-22T07:23:28.794Z,92445.13
2022-08-22T07:28:51.316Z,92434.69
2022-08-22T07:34:18.274Z,92436.69
2022-08-22T07:39:27.391Z,92430.94
2022-08-22T07:44:48.473Z,92428.88
2022-08-22T07:50:03.843Z,92442.56
2022-08-22T07:55:18.878Z,92441.41
2022-08-22T08:00:24.074Z,92440.63
2022-08-22T08:05:29.587Z,92413.72
2022-08-22T08:10:39.682Z,92431.44
2022-08-22T08:15:45.849Z,92436.91
2022-08-22T08:21:00.486Z,92440.53
2022-08-22T08:26:08.606Z,92434.69
2022-08-22T08:31:28.996Z,92440.50
2022-08-22T08:36:49.062Z,92445.69
2022-08-22T08:42:00.917Z,92451.72
2022-08-22T08:47:15.334Z,92450.31
2022-08-22T08:52:35.818Z,92441.41
2022-08-22T08:57:50.086Z,92441.41
2022-08-22T09:02:55.420Z,92445.94
2022-08-22T09:08:39.922Z,92439.28
2022-08-22T09:13:51.018Z,92412.28
2022-08-22T09:19:11.598Z,92419.44
2022-08-22T09:24:47.260Z,92407.31
2022-08-22T09:30:13.255Z,92404.28
2022-08-22T09:35:30.562Z,92406.59
2022-08-22T09:40:39.311Z,92403.69
2022-08-22T09:45:50.708Z,92403.47
2022-08-22T09:51:32.718Z,92397.81
2022-08-22T09:56:47.286Z,92408.63
2022-08-22T10:02:02.462Z,92399.16
2022-08-22T10:07:41.885Z,92399.00
2022-08-22T10:13:11.909Z,92388.19
2022-08-22T10:18:53.951Z,92397.69
2022-08-22T10:24:09.414Z,92397.81
2022-08-22T10:29:30.118Z,92398.22
2022-08-22T10:34:39.446Z,92392.06
2022-08-22T10:39:59.323Z,92390.56
2022-08-22T10:45:43.649Z,92385.63
2022-08-22T10:50:53.156Z,92349.59
2022-08-22T10:56:14.310Z,92377.00
2022-08-22T11:01:41.022Z,92387.94
2022-08-22T11:06:51.716Z,92374.78
2022-08-22T11:12:04.928Z,92363.47
2022-08-22T11:17:27.957Z,92364.47
2022-08-22T11:22:55.638Z,92358.22
2022-08-22T11:28:45.549Z,92369.00
2022-08-22T11:33:59.262Z,92374.13
2022-08-22T11:39:25.609Z,92370.28
2022-08-22T11:44:34.342Z,92371.47
2022-08-22T11:49:58.139Z,92358.66
2022-08-22T11:55:19.256Z,92360.47
2022-08-22T12:00:26.736Z,92356.19
2022-08-22T12:05:45.945Z,92352.72
2022-08-22T12:11:06.080Z,92331.19
2022-08-22T12:16:19.965Z,92340.00
2022-08-22T12:21:24.669Z,92333.47
2022-08-22T12:26:41.894Z,92332.41
2022-08-22T12:31:58.998Z,92338.13
2022-08-22T12:37:09.977Z,92333.25
2022-08-22T12:42:18.053Z,92330.38
2022-08-22T12:47:49.536Z,92335.13
2022-08-22T12:52:57.614Z,92313.41
2022-08-22T12:58:08.259Z,92293.00
2022-08-22T13:03:25.417Z,92321.81
2022-08-22T13:08:43.694Z,92309.94
2022-08-22T13:14:01.202Z,92323.16
2022-08-22T13:19:18.008Z,92320.38
2022-08-22T13:24:38.639Z,92321.06
2022-08-22T13:29:49.585Z,92309.28
2022-08-22T13:34:55.835Z,92307.97
2022-08-22T13:40:04.837Z,92315.16
2022-08-22T13:45:15.569Z,92314.63
2022-08-22T13:50:22.544Z,92294.50
2022-08-22T13:55:49.053Z,92308.06
2022-08-22T14:01:35.320Z,92302.44
2022-08-22T14:06:49.903Z,92307.25
2022-08-22T14:11:59.741Z,92296.31
2022-08-22T14:17:03.443Z,92292.56
2022-08-22T14:22:09.918Z,92296.09
2022-08-22T14:27:39.658Z,92290.44
2022-08-22T14:32:54.458Z,92287.16
2022-08-22T14:38:17.479Z,92298.16
2022-08-22T14:43:35.602Z,92297.34
2022-08-22T14:48:46.858Z,92291.53
2022-08-22T14:53:50.296Z,92300.44
2022-08-22T14:59:02.256Z,92291.13
2022-08-22T15:04:16.509Z,92287.19
2022-08-22T15:09:40.485Z,92290.25
2022-08-22T15:14:52.368Z,92287.81
2022-08-22T15:20:10.906Z,92298.94
2022-08-22T15:25:22.809Z,92283.53
2022-08-22T15:30:44.363Z,92282.50
2022-08-22T15:35:49.056Z,92287.44
2022-08-22T15:40:52.487Z,92289.88
2022-08-22T15:46:32.872Z,92268.47
2022-08-22T15:51:38.080Z,92273.69
2022-08-22T15:57:09.985Z,92270.66
2022-08-22T16:02:39.027Z,92276.00
2022-08-22T16:07:49.653Z,92276.56
2022-08-22T16:13:32.209Z,92283.19
2022-08-22T16:18:34.292Z,92303.16
2022-08-22T16:23:53.814Z,92293.44
2022-08-22T16:29:14.998Z,92284.97
2022-08-22T16:34:38.281Z,92287.41
2022-08-22T16:40:01.903Z,92283.53
2022-08-22T16:45:05.116Z,92280.53
2022-08-22T16:50:18.458Z,92279.47
2022-08-22T16:55:36.983Z,92272.78
2022-08-22T17:00:45.685Z,92279.75
2022-08-22T17:06:10.726Z,92266.16
2022-08-22T17:11:48.443Z,92273.03
2022-08-22T17:17:11.753Z,92283.97
2022-08-22T17:22:52.080Z,92301.78
2022-08-22T17:28:06.562Z,92294.25
2022-08-22T17:33:28.564Z,92295.00
2022-08-22T17:38:59.426Z,92293.88
2022-08-22T17:44:32.463Z,92306.72
2022-08-22T17:49:46.238Z,92310.47
2022-08-22T17:55:12.549Z,92318.63
2022-08-22T18:00:30.784Z,92313.09
2022-08-22T18:05:39.905Z,92318.38
2022-08-22T18:11:09.071Z,92321.81
2022-08-22T18:16:35.371Z,92320.03
2022-08-22T18:21:47.328Z,92331.91
2022-08-22T18:27:02.886Z,92344.59
2022-08-22T18:32:14.830Z,92345.31
2022-08-22T18:37:39.051Z,92327.81
2022-08-22T18:42:55.225Z,92354.38
2022-08-22T18:47:57.654Z,92352.63
2022-08-22T18:53:00.456Z,92339.19
2022-08-22T18:58:29.590Z,92362.41
2022-08-22T19:03:48.206Z,92344.75
2022-08-22T19:09:02.192Z,92371.69
2022-08-22T19:14:13.341Z,92380.75
2022-08-22T19:19:23.362Z,92378.88
2022-08-22T19:24:29.482Z,92386.84
2022-08-22T19:29:34.383Z,92393.56
2022-08-22T19:34:40.753Z,92394.94
2022-08-22T19:39:42.849Z,92403.56
2022-08-22T19:45:07.054Z,92398.97
2022-08-22T19:50:18.015Z,92406.34
2022-08-22T19:56:06.013Z,92402.13
2022-08-22T20:01:44.024Z,92407.16
2022-08-22T20:07:14.556Z,92405.59
2022-08-22T20:12:44.358Z,92413.69
2022-08-22T20:18:11.655Z,92404.47
2022-08-22T20:23:25.230Z,92411.81
2022-08-22T20:28:44.604Z,92420.03
2022-08-22T20:33:53.826Z,92411.41
2022-08-22T20:39:08.521Z,92414.19
2022-08-22T20:44:13.802Z,92422.38
2022-08-22T20:49:30.117Z,92408.94
2022-08-22T20:54:38.043Z,92406.44
2022-08-22T20:59:49.333Z,92402.38
2022-08-22T21:05:03.377Z,92411.75
2022-08-22T21:10:44.425Z,92414.50
2022-08-22T21:15:51.439Z,92407.78
2022-08-22T21:20:54.270Z,92410.75
2022-08-22T21:26:01.527Z,92416.31
2022-08-22T21:31:13.582Z,92405.47
2022-08-22T21:36:20.382Z,92415.84
2022-08-22T21:41:29.459Z,92417.69
2022-08-22T21:46:31.616Z,92414.38
2022-08-22T21:51:36.748Z,92415.69
2022-08-22T21:56:38.951Z,92392.22
2022-08-22T22:01:42.731Z,92399.69
2022-08-22T22:06:48.045Z,92408.63
2022-08-22T22:11:50.545Z,92410.44
2022-08-22T22:16:52.749Z,92419.06
2022-08-22T22:21:54.847Z,92388.03
2022-08-22T22:26:57.367Z,92414.28
2022-08-22T22:31:59.614Z,92434.91
2022-08-22T22:37:01.782Z,92435.88
2022-08-22T22:42:04.809Z,92445.69
2022-08-22T22:47:07.208Z,92437.81
2022-08-22T22:52:11.748Z,92449.78
2022-08-22T22:57:16.199Z,92453.72
2022-08-22T23:02:27.603Z,92460.59
2022-08-22T23:07:29.723Z,92446.19
2022-08-22T23:12:37.516Z,92456.91
2022-08-22T23:17:41.125Z,92449.69
2022-08-22T23:22:45.418Z,92452.69
2022-08-22T23:27:52.136Z,92456.63
2022-08-22T23:32:55.795Z,92465.22
2022-08-22T23:37:57.917Z,92464.88
2022-08-22T23:43:00.174Z,92468.00
2022-08-22T23:48:02.424Z,92461.97
2022-08-22T23:53:04.533Z,92468.97
2022-08-22T23:58:06.650Z,92462.28
